KGUS/GUS METAR and TAF weather

Enter ICAO airport designator
Station Type Date Time Source
KGUS METAR 2022/08/13 10:56 UTC NOAA

KGUS 131056Z AUTO 00000KT 10SM CLR 13/10 A3018 RMK AO2 SLP221 T01300098


Station Type Date Time Source
KGUS Decoded METAR 2022/08/13 10:56 UTC NOAA

Grissom Air Force Base / Peru, IN, United States (KGUS) 40-39N 086-09W
Aug 13, 2022 - 06:56 AM EDT / 2022.08.13 1056 UTC
Wind: Calm:0
Visibility: 10 mile(s):0
Sky conditions: clear
Temperature: 55.4 F (13.0 C)
Dew Point: 49.6 F (9.8 C)
Relative Humidity: 80%
Pressure (altimeter): 30.18 in. Hg (1022 hPa)
ob: KGUS 131056Z AUTO 00000KT 10SM CLR 13/10 A3018 RMK AO2 SLP221 T01300098
cycle: 11

Station Type Date Time Source
KGUS TAF 2022/08/12 21:12 UTC NOAA

TAF TAF KGUS 122100Z 1221/1403 VRB06KT 9999 SCT150 BKN200 QNH3003INS TX24/1321Z TN13/1310Z LAST NO
AMDS AFT 1303 NEXT 1313

Example: see airport list